Time;durP1;ratioP1;P1;durP2;ratioP2;P2;SDS_P1;SDS_P2;PMS_P1;PMS_P2;Temp;Humidity;BMP_temperature;BMP_pressure;BME280_temperature;BME280_humidity;BME280_pressure;Samples;Min_cycle;Max_cycle;Signal;HPM_P1;HPM_P2
2022/02/15 00:02:13;;;;;;;58.40;34.30;;;;;;;;;;751696;182;645252;-87
2022/02/15 00:04:39;;;;;;;57.63;33.70;;;;;;;;;;753171;185;622271;-88
2022/02/15 00:07:05;;;;;;;57.30;34.57;;;;;;;;;;751134;187;630383;-87
2022/02/15 00:09:31;;;;;;;58.83;32.90;;;;;;;;;;750631;187;723998;-87
2022/02/15 00:11:56;;;;;;;48.20;29.70;;;;;;;;;;741409;186;625855;-90
2022/02/15 00:14:22;;;;;;;47.77;27.03;;;;;;;;;;744647;187;624446;-89
2022/02/15 00:16:50;;;;;;;53.38;31.02;;;;;;;;;;735470;188;641802;-87
2022/02/15 00:19:14;;;;;;;63.27;32.90;;;;;;;;;;731357;188;636738;-88
2022/02/15 00:21:40;;;;;;;50.23;34.93;;;;;;;;;;733874;187;633960;-88
2022/02/15 00:24:06;;;;;;;48.67;31.43;;;;;;;;;;727335;192;674803;-88
2022/02/15 00:26:32;;;;;;;55.43;32.67;;;;;;;;;;727690;189;642793;-88
2022/02/15 00:28:58;;;;;;;55.53;33.30;;;;;;;;;;729048;189;734618;-88
2022/02/15 00:31:23;;;;;;;42.07;26.73;;;;;;;;;;725595;192;669975;-88
2022/02/15 00:33:49;;;;;;;40.93;26.10;;;;;;;;;;726387;192;659699;-87
2022/02/15 00:36:16;;;;;;;40.27;26.17;;;;;;;;;;727041;192;701888;-87
2022/02/15 00:41:35;;;;;;;43.63;25.17;;;;;;;;;;763938;187;26604;-88
2022/02/15 00:44:00;;;;;;;50.30;28.30;;;;;;;;;;752640;184;635798;-88
2022/02/15 00:46:26;;;;;;;46.87;27.23;;;;;;;;;;743125;184;627761;-88
2022/02/15 00:48:52;;;;;;;44.90;25.60;;;;;;;;;;738655;185;689898;-90
2022/02/15 00:51:18;;;;;;;44.37;27.10;;;;;;;;;;743757;186;26572;-88
2022/02/15 00:53:44;;;;;;;42.67;26.77;;;;;;;;;;743287;183;635078;-88
2022/02/15 00:56:10;;;;;;;40.87;25.50;;;;;;;;;;764019;183;632290;-88
2022/02/15 00:58:35;;;;;;;42.10;26.83;;;;;;;;;;760970;182;622177;-88
2022/02/15 01:01:01;;;;;;;48.47;26.53;;;;;;;;;;771666;182;628810;-89
2022/02/15 01:03:27;;;;;;;45.90;25.20;;;;;;;;;;767268;182;629745;-89
2022/02/15 01:05:53;;;;;;;38.90;22.33;;;;;;;;;;766115;183;750994;-89
2022/02/15 01:08:19;;;;;;;45.60;26.70;;;;;;;;;;766107;181;681075;-89
2022/02/15 01:10:46;;;;;;;34.53;21.60;;;;;;;;;;771883;181;659812;-89
2022/02/15 01:13:11;;;;;;;36.67;22.07;;;;;;;;;;772566;181;636062;-89
2022/02/15 01:15:36;;;;;;;29.50;20.30;;;;;;;;;;773020;182;653884;-89
2022/02/15 01:18:02;;;;;;;37.67;22.47;;;;;;;;;;769109;181;668492;-89
2022/02/15 01:23:21;;;;;;;38.00;21.60;;;;;;;;;;782362;178;636172;-89
2022/02/15 01:25:47;;;;;;;36.00;22.73;;;;;;;;;;778829;178;641650;-89
2022/02/15 01:28:13;;;;;;;40.50;23.17;;;;;;;;;;776094;179;624910;-89
2022/02/15 01:30:38;;;;;;;36.17;22.13;;;;;;;;;;779592;178;638535;-89
2022/02/15 01:33:05;;;;;;;37.80;23.17;;;;;;;;;;778125;177;621865;-90
2022/02/15 01:35:30;;;;;;;34.37;21.90;;;;;;;;;;780043;179;628153;-90
2022/02/15 01:37:56;;;;;;;34.20;21.13;;;;;;;;;;779720;178;641865;-89
2022/02/15 01:40:22;;;;;;;30.50;20.80;;;;;;;;;;776722;179;696043;-88
2022/02/15 01:42:48;;;;;;;31.97;20.10;;;;;;;;;;773517;179;678131;-90
2022/02/15 01:48:06;;;;;;;40.13;23.00;;;;;;;;;;743631;190;634142;-89
2022/02/15 01:50:32;;;;;;;27.60;20.13;;;;;;;;;;749723;184;654290;-89
2022/02/15 01:52:57;;;;;;;30.10;20.67;;;;;;;;;;754326;184;663658;-89
2022/02/15 01:55:23;;;;;;;41.40;23.07;;;;;;;;;;755509;184;675113;-89
2022/02/15 01:57:49;;;;;;;47.63;27.50;;;;;;;;;;750845;184;653207;-89
2022/02/15 02:00:15;;;;;;;53.73;31.33;;;;;;;;;;748972;187;668067;-89
2022/02/15 02:02:41;;;;;;;53.40;29.47;;;;;;;;;;753210;184;613787;-89
2022/02/15 02:07:38;;;;;;;49.03;31.20;;;;;;;;;;752691;185;636677;-88
2022/02/15 02:10:04;;;;;;;49.70;29.37;;;;;;;;;;755724;184;649454;-89
2022/02/15 02:12:30;;;;;;;52.97;31.87;;;;;;;;;;752527;184;671335;-89
2022/02/15 02:14:57;;;;;;;47.87;30.20;;;;;;;;;;749588;186;640416;-89
2022/02/15 02:17:23;;;;;;;50.77;29.30;;;;;;;;;;751368;184;641331;-88
2022/02/15 02:19:48;;;;;;;48.70;29.37;;;;;;;;;;753506;185;764312;-89
2022/02/15 02:22:14;;;;;;;62.97;34.27;;;;;;;;;;750093;185;630196;-89
2022/02/15 02:24:40;;;;;;;49.00;30.00;;;;;;;;;;752478;185;632919;-88
2022/02/15 02:27:06;;;;;;;49.93;31.77;;;;;;;;;;758337;183;662093;-88
2022/02/15 02:29:32;;;;;;;52.93;32.57;;;;;;;;;;755996;177;670596;-88
2022/02/15 02:31:58;;;;;;;48.20;31.03;;;;;;;;;;776456;181;631661;-88
2022/02/15 02:34:25;;;;;;;52.63;28.97;;;;;;;;;;761494;183;661457;-88
2022/02/15 02:36:50;;;;;;;52.63;30.40;;;;;;;;;;763672;182;624216;-88
2022/02/15 02:39:16;;;;;;;51.00;32.40;;;;;;;;;;763647;182;629692;-88
2022/02/15 02:41:42;;;;;;;46.33;28.13;;;;;;;;;;766606;180;700221;-87
2022/02/15 02:44:08;;;;;;;44.53;25.83;;;;;;;;;;775793;181;635452;-88
2022/02/15 02:46:34;;;;;;;48.13;29.40;;;;;;;;;;748927;182;661989;-88
2022/02/15 02:49:00;;;;;;;51.37;30.20;;;;;;;;;;762771;183;638616;-88
2022/02/15 02:51:25;;;;;;;45.70;26.30;;;;;;;;;;768172;182;617231;-88
2022/02/15 02:53:51;;;;;;;47.13;27.10;;;;;;;;;;767851;182;762657;-87
2022/02/15 02:56:25;;;;;;;43.90;27.30;;;;;;;;;;761740;181;626645;31
2022/02/15 02:58:51;;;;;;;41.97;26.20;;;;;;;;;;750788;183;645077;-87
2022/02/15 03:01:17;;;;;;;44.47;27.30;;;;;;;;;;771705;180;669854;-88
2022/02/15 03:03:43;;;;;;;42.33;24.50;;;;;;;;;;764746;182;677886;-88
2022/02/15 03:06:08;;;;;;;46.50;27.90;;;;;;;;;;763457;182;675778;-88
2022/02/15 03:08:34;;;;;;;46.63;25.07;;;;;;;;;;763438;182;629524;-87
2022/02/15 03:11:00;;;;;;;42.13;25.70;;;;;;;;;;761659;181;631956;-88
2022/02/15 03:13:26;;;;;;;46.97;25.23;;;;;;;;;;761841;181;623931;-88
2022/02/15 03:15:52;;;;;;;42.57;26.63;;;;;;;;;;773531;181;634632;-87
2022/02/15 03:18:18;;;;;;;48.00;27.87;;;;;;;;;;767743;181;769842;-88
2022/02/15 03:20:51;;;;;;;38.33;26.40;;;;;;;;;;766097;179;26991;-87
2022/02/15 03:23:18;;;;;;;43.03;26.17;;;;;;;;;;739570;189;626926;-87
2022/02/15 03:25:43;;;;;;;46.70;26.90;;;;;;;;;;731397;191;677780;-87
2022/02/15 03:28:09;;;;;;;42.50;27.53;;;;;;;;;;732062;190;619040;-87
2022/02/15 03:30:35;;;;;;;43.07;26.67;;;;;;;;;;752631;183;680199;-87
2022/02/15 03:33:01;;;;;;;48.70;27.30;;;;;;;;;;757539;183;633237;-86
2022/02/15 03:35:27;;;;;;;43.03;27.10;;;;;;;;;;753872;185;624748;-87
2022/02/15 03:37:52;;;;;;;46.40;27.40;;;;;;;;;;752254;186;636737;-86
2022/02/15 03:40:18;;;;;;;42.23;25.37;;;;;;;;;;754963;185;625151;-86
2022/02/15 03:45:16;;;;;;;43.20;27.00;;;;;;;;;;755726;183;620719;-86
2022/02/15 03:47:42;;;;;;;45.30;27.17;;;;;;;;;;755448;185;641213;-87
2022/02/15 03:50:08;;;;;;;42.00;25.80;;;;;;;;;;755857;186;633335;-87
2022/02/15 03:52:34;;;;;;;39.83;24.23;;;;;;;;;;751351;182;642590;-86
2022/02/15 03:55:00;;;;;;;49.53;27.47;;;;;;;;;;750016;185;635376;-87
2022/02/15 03:57:25;;;;;;;42.27;24.77;;;;;;;;;;753284;185;682898;-86
2022/02/15 03:59:51;;;;;;;37.90;23.93;;;;;;;;;;757455;185;659729;-86
2022/02/15 04:05:10;;;;;;;42.47;24.07;;;;;;;;;;713179;178;634358;-87
2022/02/15 04:07:36;;;;;;;42.43;26.13;;;;;;;;;;747713;187;625086;-87
2022/02/15 04:10:02;;;;;;;44.28;24.10;;;;;;;;;;747437;182;650996;-87
2022/02/15 04:12:28;;;;;;;41.27;24.10;;;;;;;;;;741222;191;631082;-88
2022/02/15 04:14:54;;;;;;;42.33;23.80;;;;;;;;;;733696;189;647613;-88
2022/02/15 04:17:20;;;;;;;44.03;25.37;;;;;;;;;;736556;187;638808;-88
2022/02/15 04:19:45;;;;;;;35.20;23.37;;;;;;;;;;740289;189;637126;-88
2022/02/15 04:22:11;;;;;;;38.70;23.23;;;;;;;;;;735951;188;695797;-87
2022/02/15 04:24:37;;;;;;;38.30;22.83;;;;;;;;;;769622;175;635635;-87
2022/02/15 04:27:03;;;;;;;42.23;22.60;;;;;;;;;;778824;179;638300;-87
2022/02/15 04:29:29;;;;;;;34.10;21.70;;;;;;;;;;767834;178;629520;-87
2022/02/15 04:31:55;;;;;;;32.93;22.30;;;;;;;;;;767140;178;689465;-87
2022/02/15 04:34:21;;;;;;;41.23;25.17;;;;;;;;;;775251;178;637924;-87
2022/02/15 04:36:47;;;;;;;38.93;23.10;;;;;;;;;;777108;180;661815;-88
2022/02/15 04:39:12;;;;;;;39.87;24.30;;;;;;;;;;769709;180;649288;-87
2022/02/15 04:41:38;;;;;;;37.73;23.67;;;;;;;;;;774885;180;990087;-87
2022/02/15 04:44:04;;;;;;;39.40;23.43;;;;;;;;;;780200;177;624011;-87
2022/02/15 04:46:30;;;;;;;37.77;22.33;;;;;;;;;;778588;180;706575;-87
2022/02/15 04:48:56;;;;;;;36.80;23.60;;;;;;;;;;773912;180;673186;-87
2022/02/15 04:51:22;;;;;;;47.70;33.70;;;;;;;;;;780952;180;636866;-87
2022/02/15 04:53:48;;;;;;;73.07;43.60;;;;;;;;;;775927;180;633630;-87
2022/02/15 04:56:14;;;;;;;69.23;45.63;;;;;;;;;;774753;182;627762;-87
2022/02/15 04:58:39;;;;;;;54.15;32.30;;;;;;;;;;774459;180;880115;-87
2022/02/15 05:01:05;;;;;;;40.45;24.23;;;;;;;;;;771091;180;850166;-87
2022/02/15 05:03:31;;;;;;;36.50;25.20;;;;;;;;;;777168;180;660963;-87
2022/02/15 05:05:57;;;;;;;38.90;23.00;;;;;;;;;;770143;181;653200;-87
2022/02/15 05:08:23;;;;;;;39.33;21.90;;;;;;;;;;769807;182;665318;-88
2022/02/15 05:10:49;;;;;;;39.13;24.60;;;;;;;;;;775862;180;630415;-87
2022/02/15 05:13:14;;;;;;;35.47;22.90;;;;;;;;;;754672;179;664756;-87
2022/02/15 05:15:40;;;;;;;34.70;21.73;;;;;;;;;;756413;185;674059;-87
2022/02/15 05:27:08;;;;;;;50.63;30.03;;;;;;;;;;769193;176;26569;31
2022/02/15 05:52:17;;;;;;;36.80;23.23;;;;;;;;;;781778;179;628524;-88
2022/02/15 05:57:36;;;;;;;42.87;26.47;;;;;;;;;;783563;180;632247;-89
2022/02/15 06:00:02;;;;;;;47.20;27.70;;;;;;;;;;770119;181;674531;-88
2022/02/15 06:02:28;;;;;;;48.53;25.80;;;;;;;;;;779012;176;698995;-88
2022/02/15 06:04:55;;;;;;;39.80;23.93;;;;;;;;;;771469;175;614380;-88
2022/02/15 06:07:21;;;;;;;33.67;21.77;;;;;;;;;;762995;180;623721;-88
2022/02/15 06:09:47;;;;;;;36.83;24.00;;;;;;;;;;770825;182;632923;-88
2022/02/15 06:12:13;;;;;;;41.70;23.93;;;;;;;;;;763572;180;634885;-88
2022/02/15 06:14:38;;;;;;;41.37;23.20;;;;;;;;;;768052;181;613692;-89
2022/02/15 06:17:04;;;;;;;39.37;23.70;;;;;;;;;;768084;181;627799;-88
2022/02/15 06:19:30;;;;;;;47.07;26.50;;;;;;;;;;771552;182;670395;-88
2022/02/15 06:21:56;;;;;;;45.83;25.50;;;;;;;;;;764225;181;635817;-88
2022/02/15 06:24:23;;;;;;;38.37;24.40;;;;;;;;;;763636;182;628385;-87
2022/02/15 06:26:48;;;;;;;40.50;26.60;;;;;;;;;;768781;184;657569;-88
2022/02/15 06:29:14;;;;;;;43.90;26.50;;;;;;;;;;759397;181;628956;-88
2022/02/15 06:31:39;;;;;;;56.47;30.20;;;;;;;;;;763897;177;671274;-87
2022/02/15 06:34:05;;;;;;;56.57;31.60;;;;;;;;;;755030;186;626436;-88
2022/02/15 06:36:31;;;;;;;65.80;38.17;;;;;;;;;;743191;181;620353;-88
2022/02/15 06:38:57;;;;;;;76.73;39.73;;;;;;;;;;760457;184;626877;-87
2022/02/15 06:41:23;;;;;;;99.67;49.67;;;;;;;;;;763980;184;613534;-87
2022/02/15 06:43:49;;;;;;;74.78;40.78;;;;;;;;;;761270;184;627328;-87
2022/02/15 06:49:07;;;;;;;82.83;46.97;;;;;;;;;;770323;185;26453;-87
2022/02/15 06:51:33;;;;;;;88.67;45.97;;;;;;;;;;756456;186;630454;-86
2022/02/15 06:53:59;;;;;;;83.80;42.07;;;;;;;;;;751508;186;641275;-86
2022/02/15 06:56:25;;;;;;;70.47;38.23;;;;;;;;;;750746;187;649188;-87
2022/02/15 06:58:51;;;;;;;72.07;39.80;;;;;;;;;;744013;185;638027;-87
2022/02/15 07:01:17;;;;;;;75.30;43.20;;;;;;;;;;756533;185;728036;-86
2022/02/15 07:03:43;;;;;;;74.50;38.17;;;;;;;;;;760410;183;638746;-87
2022/02/15 07:06:08;;;;;;;81.93;44.77;;;;;;;;;;763048;178;646385;-85
2022/02/15 07:08:34;;;;;;;86.60;43.43;;;;;;;;;;746593;179;658419;-86
2022/02/15 07:11:00;;;;;;;88.37;47.23;;;;;;;;;;740163;188;662731;-87
2022/02/15 07:16:19;;;;;;;69.90;41.43;;;;;;;;;;743525;188;625957;-87
2022/02/15 07:18:45;;;;;;;77.10;42.70;;;;;;;;;;735593;188;639501;-86
2022/02/15 07:29:48;;;;;;;77.50;41.20;;;;;;;;;;701522;178;650498;-86
2022/02/15 07:32:17;;;;;;;62.90;40.50;;;;;;;;;;728453;188;681014;-87
2022/02/15 07:34:40;;;;;;;77.63;42.17;;;;;;;;;;719147;194;666110;-86
2022/02/15 07:37:06;;;;;;;79.57;40.07;;;;;;;;;;734682;190;629705;-87
2022/02/15 07:39:32;;;;;;;88.43;41.50;;;;;;;;;;747849;184;1025629;-87
2022/02/15 07:41:57;;;;;;;90.77;42.57;;;;;;;;;;759086;182;623355;-88
2022/02/15 07:44:23;;;;;;;76.03;41.90;;;;;;;;;;763511;181;632791;-88
2022/02/15 07:46:49;;;;;;;83.80;42.30;;;;;;;;;;759444;180;669645;-89
2022/02/15 07:49:15;;;;;;;97.70;49.10;;;;;;;;;;761629;181;644775;-88
2022/02/15 07:54:34;;;;;;;83.57;44.30;;;;;;;;;;741240;187;630272;-87
2022/02/15 07:59:52;;;;;;;75.43;40.50;;;;;;;;;;774950;183;614695;-87
2022/02/15 08:05:10;;;;;;;88.77;49.53;;;;;;;;;;749811;184;644120;-86
2022/02/15 08:07:37;;;;;;;95.63;52.27;;;;;;;;;;762926;182;655174;-85
2022/02/15 08:10:03;;;;;;;96.23;51.70;;;;;;;;;;767116;182;683410;-84
2022/02/15 08:12:28;;;;;;;91.10;47.73;;;;;;;;;;772650;181;645502;-84
2022/02/15 08:14:54;;;;;;;126.00;61.30;;;;;;;;;;768321;182;652306;-84
2022/02/15 08:17:20;;;;;;;109.93;56.50;;;;;;;;;;754778;181;629954;-84
2022/02/15 08:19:46;;;;;;;98.07;52.63;;;;;;;;;;772472;182;629038;-84
2022/02/15 08:22:12;;;;;;;101.20;52.70;;;;;;;;;;769050;182;713669;-83
2022/02/15 08:24:38;;;;;;;89.23;48.03;;;;;;;;;;768998;182;680654;-85
2022/02/15 08:27:04;;;;;;;78.27;41.77;;;;;;;;;;764325;177;638817;-85
2022/02/15 08:29:31;;;;;;;71.53;42.23;;;;;;;;;;779311;177;632196;-85
2022/02/15 08:34:48;;;;;;;71.10;41.03;;;;;;;;;;765442;182;733290;-86
2022/02/15 08:37:14;;;;;;;63.37;37.60;;;;;;;;;;748133;184;688560;-86
2022/02/15 08:39:40;;;;;;;59.83;36.30;;;;;;;;;;747810;187;670238;-87
2022/02/15 08:42:06;;;;;;;58.40;37.20;;;;;;;;;;749603;185;625984;-86
2022/02/15 08:44:32;;;;;;;68.50;37.67;;;;;;;;;;742029;187;628351;-86
2022/02/15 08:46:58;;;;;;;70.00;39.20;;;;;;;;;;747068;187;652745;-85
2022/02/15 08:49:24;;;;;;;61.00;34.73;;;;;;;;;;750360;187;643562;-85
2022/02/15 08:54:42;;;;;;;59.97;31.97;;;;;;;;;;713906;183;628758;-90
2022/02/15 08:57:09;;;;;;;50.10;32.10;;;;;;;;;;749942;184;649979;-89
2022/02/15 08:59:34;;;;;;;55.80;31.00;;;;;;;;;;743950;186;666527;-90
2022/02/15 09:02:00;;;;;;;50.73;32.17;;;;;;;;;;743901;188;625469;-89
2022/02/15 09:04:25;;;;;;;50.37;30.67;;;;;;;;;;738087;187;651431;-89
2022/02/15 09:06:53;;;;;;;47.70;28.80;;;;;;;;;;738167;186;655835;-87
2022/02/15 09:09:18;;;;;;;47.70;28.37;;;;;;;;;;749670;184;626345;-90
2022/02/15 09:11:44;;;;;;;44.57;28.50;;;;;;;;;;763326;181;707824;-90
2022/02/15 09:14:09;;;;;;;41.53;24.80;;;;;;;;;;765546;181;631426;-90
2022/02/15 09:16:35;;;;;;;32.03;21.20;;;;;;;;;;770105;182;640665;-90
2022/02/15 09:19:01;;;;;;;37.80;22.90;;;;;;;;;;754495;183;627904;-87
2022/02/15 09:21:26;;;;;;;31.77;19.57;;;;;;;;;;775895;179;614743;-87
2022/02/15 09:23:52;;;;;;;37.30;21.70;;;;;;;;;;774320;178;644000;-89
2022/02/15 09:26:18;;;;;;;37.97;22.67;;;;;;;;;;768183;179;627731;-89
2022/02/15 09:28:44;;;;;;;37.63;23.30;;;;;;;;;;752142;183;696458;-90
2022/02/15 09:31:10;;;;;;;34.87;20.70;;;;;;;;;;750289;183;648843;-89
2022/02/15 09:33:36;;;;;;;33.53;22.70;;;;;;;;;;747680;185;638801;-89
2022/02/15 09:36:01;;;;;;;39.87;23.63;;;;;;;;;;739503;186;709802;-89
2022/02/15 09:38:27;;;;;;;41.00;24.37;;;;;;;;;;750076;187;629527;-91
2022/02/15 09:40:53;;;;;;;37.97;24.37;;;;;;;;;;746572;185;624539;-89
2022/02/15 09:43:19;;;;;;;41.73;26.13;;;;;;;;;;743367;187;629927;-90
2022/02/15 09:45:46;;;;;;;37.33;24.30;;;;;;;;;;744908;187;642776;-90
2022/02/15 09:48:13;;;;;;;38.20;24.33;;;;;;;;;;746427;187;626398;-87
2022/02/15 09:50:38;;;;;;;35.73;23.10;;;;;;;;;;743686;187;627551;-89
2022/02/15 09:53:04;;;;;;;34.33;22.40;;;;;;;;;;788338;173;630855;-87
2022/02/15 09:55:30;;;;;;;41.87;22.63;;;;;;;;;;793397;173;651090;-87
2022/02/15 09:57:55;;;;;;;43.07;25.20;;;;;;;;;;777131;180;614368;-88
2022/02/15 10:00:22;;;;;;;43.63;25.60;;;;;;;;;;761897;176;652273;-89
2022/02/15 10:02:48;;;;;;;36.33;23.90;;;;;;;;;;753409;181;637007;-90
2022/02/15 10:05:15;;;;;;;36.37;22.60;;;;;;;;;;757939;183;614125;-90
2022/02/15 10:07:43;;;;;;;37.40;22.93;;;;;;;;;;751605;183;629361;-89
2022/02/15 10:10:09;;;;;;;34.80;22.10;;;;;;;;;;751971;182;624673;-90
2022/02/15 10:12:46;;;;;;;33.90;23.63;;;;;;;;;;751498;183;621240;31
2022/02/15 10:15:11;;;;;;;38.43;21.87;;;;;;;;;;732034;189;620360;-89
2022/02/15 10:17:37;;;;;;;35.17;22.47;;;;;;;;;;712405;188;638546;-90
2022/02/15 10:20:04;;;;;;;32.43;22.20;;;;;;;;;;718985;191;616919;-90
2022/02/15 10:22:29;;;;;;;35.73;23.30;;;;;;;;;;715364;192;652040;-91
2022/02/15 10:25:05;;;;;;;;;;;;;;;;;;;;;
2022/02/15 10:27:23;;;;;;;34.70;22.87;;;;;;;;;;718370;179;677719;-87
2022/02/15 10:29:49;;;;;;;38.27;23.90;;;;;;;;;;734907;182;651944;-87
2022/02/15 10:32:16;;;;;;;40.97;23.70;;;;;;;;;;758983;183;624807;-87
2022/02/15 10:34:44;;;;;;;38.10;25.10;;;;;;;;;;764230;184;652525;-88
2022/02/15 10:37:13;;;;;;;37.27;24.00;;;;;;;;;;747258;187;666608;-87
2022/02/15 10:39:36;;;;;;;37.43;22.87;;;;;;;;;;767872;180;638080;-87
2022/02/15 10:42:03;;;;;;;33.23;21.90;;;;;;;;;;754830;177;639588;-89
2022/02/15 10:44:29;;;;;;;37.00;22.50;;;;;;;;;;733560;191;629938;-90
2022/02/15 10:46:54;;;;;;;42.97;22.50;;;;;;;;;;732019;189;626548;-90
2022/02/15 10:49:21;;;;;;;42.70;23.97;;;;;;;;;;718674;194;630132;-88
2022/02/15 10:51:46;;;;;;;38.37;24.20;;;;;;;;;;715524;194;636199;-90
2022/02/15 10:54:13;;;;;;;38.50;24.87;;;;;;;;;;714636;196;634549;-89
2022/02/15 10:56:41;;;;;;;45.43;23.87;;;;;;;;;;721514;196;636812;-90
2022/02/15 10:59:04;;;;;;;37.70;22.77;;;;;;;;;;738033;180;625498;-89
2022/02/15 11:01:30;;;;;;;38.03;23.27;;;;;;;;;;737999;187;639886;-90
2022/02/15 11:03:55;;;;;;;36.80;22.07;;;;;;;;;;726950;191;632552;-88
2022/02/15 11:06:21;;;;;;;40.40;23.80;;;;;;;;;;727458;192;634858;-90
2022/02/15 11:08:47;;;;;;;37.63;24.10;;;;;;;;;;732840;189;638066;-90
2022/02/15 11:11:18;;;;;;;36.20;22.70;;;;;;;;;;731993;189;682656;-90
2022/02/15 11:13:44;;;;;;;35.00;22.10;;;;;;;;;;738093;189;676814;-90
2022/02/15 11:16:09;;;;;;;41.93;23.90;;;;;;;;;;733514;178;634829;-89
2022/02/15 11:18:35;;;;;;;45.70;25.97;;;;;;;;;;723939;189;653133;-88
2022/02/15 11:21:01;;;;;;;34.77;23.90;;;;;;;;;;741301;184;636845;-89
2022/02/15 11:23:27;;;;;;;31.27;23.10;;;;;;;;;;743216;188;663448;-89
2022/02/15 11:26:09;;;;;;;39.07;24.23;;;;;;;;;;746451;187;636087;-90
2022/02/15 11:28:34;;;;;;;37.93;24.70;;;;;;;;;;734793;186;642211;-89
2022/02/15 11:31:00;;;;;;;35.47;22.57;;;;;;;;;;733899;191;639761;-90
2022/02/15 11:33:26;;;;;;;42.47;22.80;;;;;;;;;;737876;188;622122;-89
2022/02/15 11:35:53;;;;;;;34.80;21.97;;;;;;;;;;706027;195;625301;-88
2022/02/15 11:38:19;;;;;;;33.23;22.60;;;;;;;;;;734188;189;642252;-89
2022/02/15 11:40:44;;;;;;;35.17;21.60;;;;;;;;;;725232;189;641702;-90
2022/02/15 11:43:10;;;;;;;32.73;21.60;;;;;;;;;;751331;186;639099;-88
2022/02/15 11:45:38;;;;;;;32.77;22.17;;;;;;;;;;755389;185;628732;-89
2022/02/15 11:48:03;;;;;;;35.57;22.40;;;;;;;;;;755894;182;697718;-87
2022/02/15 11:50:28;;;;;;;48.43;24.33;;;;;;;;;;724742;182;5035927;-89
2022/02/15 11:52:54;;;;;;;38.00;24.97;;;;;;;;;;737648;188;953203;-88
2022/02/15 11:55:20;;;;;;;33.33;21.33;;;;;;;;;;742865;187;625115;-90
2022/02/15 11:57:45;;;;;;;38.27;23.30;;;;;;;;;;747823;184;626601;-89
2022/02/15 12:00:12;;;;;;;39.67;25.37;;;;;;;;;;742611;182;629535;-90
2022/02/15 12:02:37;;;;;;;42.17;26.10;;;;;;;;;;727686;190;644089;-90
2022/02/15 12:05:06;;;;;;;37.57;24.30;;;;;;;;;;742245;187;626678;-91
2022/02/15 12:07:30;;;;;;;36.00;23.17;;;;;;;;;;746871;187;633361;-89
2022/02/15 12:09:56;;;;;;;38.57;25.20;;;;;;;;;;752539;184;635265;-88
2022/02/15 12:12:22;;;;;;;40.00;26.93;;;;;;;;;;746073;188;635187;-90
2022/02/15 12:14:54;;;;;;;43.80;25.00;;;;;;;;;;733094;188;623919;-87
2022/02/15 12:17:22;;;;;;;36.40;22.53;;;;;;;;;;742532;187;628672;-86
2022/02/15 12:19:48;;;;;;;44.07;25.77;;;;;;;;;;753021;184;808033;-88
2022/02/15 12:22:14;;;;;;;40.90;25.13;;;;;;;;;;748501;185;634029;-91
2022/02/15 12:24:40;;;;;;;38.27;23.67;;;;;;;;;;745351;185;644205;-89
2022/02/15 12:27:07;;;;;;;35.97;23.80;;;;;;;;;;743877;186;674710;-89
2022/02/15 12:29:32;;;;;;;40.60;28.53;;;;;;;;;;740319;187;635504;-90
2022/02/15 12:31:59;;;;;;;39.87;24.07;;;;;;;;;;738742;188;638930;-89
2022/02/15 12:34:26;;;;;;;35.30;24.73;;;;;;;;;;756820;184;659509;-90
2022/02/15 12:36:52;;;;;;;43.20;23.20;;;;;;;;;;757868;180;622142;-88
2022/02/15 12:39:20;;;;;;;40.00;23.10;;;;;;;;;;762326;181;631293;-90
2022/02/15 12:41:47;;;;;;;38.97;23.50;;;;;;;;;;745003;185;657997;-89
2022/02/15 12:44:10;;;;;;;37.47;23.67;;;;;;;;;;734860;189;627067;-90
2022/02/15 12:46:36;;;;;;;32.97;21.20;;;;;;;;;;751801;183;621131;-89
2022/02/15 12:51:54;;;;;;;36.90;22.17;;;;;;;;;;651190;185;5238165;-91
2022/02/15 12:54:22;;;;;;;38.70;23.27;;;;;;;;;;711021;194;620209;-87
2022/02/15 12:56:47;;;;;;;37.53;22.50;;;;;;;;;;707215;195;763430;-89
2022/02/15 12:59:13;;;;;;;35.67;23.07;;;;;;;;;;706796;196;625654;-90
2022/02/15 13:01:39;;;;;;;36.33;21.60;;;;;;;;;;751779;180;644189;-89
2022/02/15 13:04:05;;;;;;;36.33;21.97;;;;;;;;;;752463;184;1886671;-89
2022/02/15 13:06:31;;;;;;;36.03;22.00;;;;;;;;;;761726;185;625429;-87
2022/02/15 13:08:57;;;;;;;41.70;21.93;;;;;;;;;;749468;186;642829;-89
2022/02/15 13:11:24;;;;;;;31.53;20.43;;;;;;;;;;757081;184;627120;-89
2022/02/15 13:13:50;;;;;;;35.17;19.87;;;;;;;;;;759100;181;624117;-89
2022/02/15 13:16:16;;;;;;;31.23;22.00;;;;;;;;;;755464;187;634129;-90
2022/02/15 13:18:47;;;;;;;34.97;20.37;;;;;;;;;;744501;186;677140;-89
2022/02/15 13:21:12;;;;;;;25.40;18.10;;;;;;;;;;749346;186;627471;-89
2022/02/15 13:23:38;;;;;;;31.80;20.17;;;;;;;;;;752864;187;626944;-90
2022/02/15 13:26:08;;;;;;;29.03;20.17;;;;;;;;;;753441;184;624899;-88
2022/02/15 13:28:34;;;;;;;31.10;21.53;;;;;;;;;;758412;182;625670;-89
2022/02/15 13:31:00;;;;;;;28.80;17.50;;;;;;;;;;746855;185;635306;-88
2022/02/15 13:33:26;;;;;;;34.90;19.10;;;;;;;;;;750599;186;637159;-89
2022/02/15 13:35:56;;;;;;;33.77;18.27;;;;;;;;;;750101;186;626537;-89
2022/02/15 13:38:22;;;;;;;30.20;18.10;;;;;;;;;;747869;187;633047;-90
2022/02/15 13:40:48;;;;;;;31.03;18.50;;;;;;;;;;748872;184;632692;-90
2022/02/15 13:43:19;;;;;;;31.10;17.33;;;;;;;;;;748584;188;615201;-90
2022/02/15 13:45:44;;;;;;;22.30;16.00;;;;;;;;;;746395;186;656105;-89
2022/02/15 13:48:10;;;;;;;22.17;15.98;;;;;;;;;;759491;183;730285;-87
2022/02/15 13:50:36;;;;;;;25.70;17.60;;;;;;;;;;752900;185;630007;-90
2022/02/15 13:53:02;;;;;;;21.43;13.80;;;;;;;;;;752908;185;630442;-89
2022/02/15 13:55:28;;;;;;;23.33;14.53;;;;;;;;;;757882;183;632377;-90
2022/02/15 13:57:54;;;;;;;22.03;13.10;;;;;;;;;;755110;183;644524;-90
2022/02/15 14:00:21;;;;;;;25.30;14.87;;;;;;;;;;740397;187;694788;-89
2022/02/15 14:02:48;;;;;;;26.57;16.73;;;;;;;;;;741874;180;624100;-90
2022/02/15 14:05:11;;;;;;;27.70;15.77;;;;;;;;;;732422;189;644590;-91
2022/02/15 14:07:37;;;;;;;22.77;15.37;;;;;;;;;;727294;193;647493;-90
2022/02/15 14:10:03;;;;;;;26.90;16.13;;;;;;;;;;717171;195;1182707;-90
2022/02/15 14:12:29;;;;;;;29.77;17.13;;;;;;;;;;721683;192;665893;-89
2022/02/15 14:14:56;;;;;;;31.97;20.30;;;;;;;;;;724055;194;637853;-89
2022/02/15 14:19:52;;;;;;;28.77;20.40;;;;;;;;;;730426;189;657825;-87
2022/02/15 14:22:18;;;;;;;32.60;18.63;;;;;;;;;;716326;193;638889;-86
2022/02/15 14:24:44;;;;;;;30.23;17.80;;;;;;;;;;716507;194;647714;-88
2022/02/15 14:27:10;;;;;;;31.73;18.10;;;;;;;;;;718771;192;654070;-86
2022/02/15 14:29:36;;;;;;;25.60;18.10;;;;;;;;;;751302;181;623749;-90
2022/02/15 14:32:02;;;;;;;29.20;18.47;;;;;;;;;;743405;185;639927;-89
2022/02/15 14:34:28;;;;;;;30.20;18.70;;;;;;;;;;752143;183;633478;-90
2022/02/15 14:36:54;;;;;;;29.10;18.27;;;;;;;;;;751418;182;632965;-89
2022/02/15 14:39:19;;;;;;;31.37;19.33;;;;;;;;;;739163;187;624542;-89
2022/02/15 14:41:45;;;;;;;27.50;16.87;;;;;;;;;;739255;188;649663;-89
2022/02/15 14:44:11;;;;;;;28.20;18.17;;;;;;;;;;727361;188;743157;-89
2022/02/15 14:46:38;;;;;;;31.30;19.42;;;;;;;;;;739192;186;688645;-89
2022/02/15 14:49:04;;;;;;;29.57;18.90;;;;;;;;;;733391;191;764452;-88
2022/02/15 14:51:30;;;;;;;26.43;18.17;;;;;;;;;;736033;189;641425;-88
2022/02/15 14:53:57;;;;;;;30.70;18.47;;;;;;;;;;741972;185;630884;-90
2022/02/15 14:56:24;;;;;;;29.30;18.70;;;;;;;;;;732375;191;625079;-89
2022/02/15 14:58:50;;;;;;;28.90;18.63;;;;;;;;;;732731;188;619505;-89
2022/02/15 15:01:16;;;;;;;31.50;20.70;;;;;;;;;;750136;185;738094;-89
2022/02/15 15:03:42;;;;;;;31.83;19.70;;;;;;;;;;753248;181;635627;-88
2022/02/15 15:06:08;;;;;;;30.27;18.20;;;;;;;;;;728229;191;636265;-89
2022/02/15 15:08:34;;;;;;;30.75;18.98;;;;;;;;;;742943;184;680823;-89
2022/02/15 15:10:59;;;;;;;32.23;19.60;;;;;;;;;;732415;188;630103;-89
2022/02/15 15:13:27;;;;;;;33.47;20.10;;;;;;;;;;736002;189;628837;-89
2022/02/15 15:15:52;;;;;;;29.50;20.87;;;;;;;;;;732453;187;640279;-88
2022/02/15 15:18:18;;;;;;;31.10;20.13;;;;;;;;;;735135;187;631809;-89
2022/02/15 15:20:44;;;;;;;33.27;21.50;;;;;;;;;;740747;188;632740;-89
2022/02/15 15:23:10;;;;;;;34.03;22.77;;;;;;;;;;744615;187;642174;-88
2022/02/15 15:25:35;;;;;;;31.92;20.70;;;;;;;;;;742984;187;630248;-89